.
WxDataArchive / Data Records for 2007-10-23
2007-10-22 October 2007 2007-10-24

Data Records for Tuesday, 23 October 2007

Time	Temp	Chill	HIndex	Humid	Dewpt	 Wind 	HiWind	WindDir	Rain 	Barom 
-----	----	-----	------	-----	-----	------	------	-------	-----	----- 
00:00	57.6	57.6	57.6	97	56.8	0	1	90	0.00	29.744 
00:05	57.6	57.6	57.6	97	56.8	0	1	90	0.00	29.747 
00:10	57.6	57.6	57.6	97	56.8	0	1	90	0.00	29.747 
00:15	57.5	57.5	57.5	97	56.7	0	1	90	0.00	29.749 
00:20	57.5	57.5	57.5	97	56.7	0	1	90	0.00	29.747 
00:25	57.3	57.3	57.3	97	56.5	0	2	68	0.00	29.750 
00:30	57.3	57.3	57.3	97	56.5	0	2	68	0.00	29.741 
00:35	57.3	57.3	57.3	97	56.5	0	1	68	0.00	29.732 
00:40	57.3	57.3	57.3	97	56.5	0	2	45	0.00	29.733 
00:45	57.2	57.2	57.2	97	56.4	0	0	---	0.01	29.725 
00:50	57.2	57.2	57.2	97	56.4	0	1	45	0.00	29.720 
00:55	57.2	57.2	57.2	97	56.4	0	2	45	0.00	29.717 
01:00	57.0	57.0	57.0	97	56.2	0	1	45	0.00	29.718 
01:05	57.0	57.0	57.0	97	56.2	0	1	45	0.00	29.719 
01:10	56.9	56.9	56.9	97	56.1	0	1	45	0.00	29.724 
01:15	56.9	56.9	56.9	97	56.1	0	2	0	0.00	29.718 
01:20	56.7	56.7	56.7	97	55.9	0	1	0	0.00	29.715 
01:25	56.7	56.7	56.7	97	55.9	0	2	0	0.00	29.711 
01:30	56.6	56.6	56.6	97	55.8	0	2	0	0.00	29.718 
01:35	56.5	56.5	56.5	97	55.7	0	2	0	0.01	29.723 
01:40	56.5	56.5	56.5	97	55.7	0	1	0	0.00	29.724 
01:45	56.3	56.3	56.3	97	55.5	0	1	0	0.00	29.726 
01:50	56.2	56.2	56.2	97	55.4	0	1	0	0.00	29.732 
01:55	56.0	56.0	56.0	97	55.2	0	2	0	0.00	29.729 
02:00	55.9	55.9	55.9	97	55.1	0	2	338	0.00	29.724 
02:05	55.9	55.9	55.9	97	55.1	0	3	338	0.00	29.727 
02:10	55.7	55.7	55.7	97	54.9	0	3	315	0.00	29.722 
02:15	55.7	55.7	55.7	97	54.9	0	1	315	0.00	29.721 
02:20	55.6	55.6	55.6	97	54.8	0	1	315	0.00	29.720 
02:25	55.6	55.6	55.6	97	54.8	0	3	315	0.00	29.720 
02:30	55.4	55.4	55.4	97	54.6	0	3	270	0.00	29.719 
02:35	55.4	55.4	55.4	97	54.6	0	1	292	0.00	29.718 
02:40	55.1	55.1	55.1	97	54.3	0	2	292	0.01	29.718 
02:45	54.8	54.8	54.8	96	53.7	1	3	292	0.00	29.716 
02:50	54.1	54.1	54.1	96	53.0	1	5	292	0.00	29.720 
02:55	53.3	53.3	53.3	96	52.2	1	4	338	0.00	29.721 
03:00	52.8	52.8	52.8	96	51.7	1	7	270	0.00	29.722 
03:05	52.5	52.5	52.5	96	51.4	1	4	292	0.00	29.728 
03:10	52.0	52.0	52.0	95	50.6	1	3	292	0.00	29.734 
03:15	51.7	51.7	51.7	95	50.3	1	3	315	0.00	29.738 
03:20	51.6	51.6	51.6	95	50.2	1	5	292	0.00	29.740 
03:25	51.3	51.3	51.3	95	49.9	1	4	315	0.00	29.741 
03:30	51.3	51.3	51.3	95	49.9	0	2	292	0.00	29.742 
03:35	50.5	50.5	50.5	94	48.8	2	7	292	0.00	29.740 
03:40	50.2	50.2	50.2	94	48.5	1	5	315	0.01	29.738 
03:45	50.1	50.1	50.1	94	48.4	1	11	315	0.00	29.741 
03:50	49.9	49.9	49.9	94	48.2	1	2	315	0.00	29.740 
03:55	49.8	49.8	49.8	94	48.1	1	6	0	0.00	29.742 
04:00	49.6	49.6	49.6	94	47.9	0	3	338	0.00	29.739 
04:05	49.6	49.6	49.6	94	47.9	1	4	45	0.00	29.741 
04:10	49.6	49.6	49.6	95	48.2	1	5	292	0.00	29.742 
04:15	49.5	49.5	49.5	95	48.1	1	6	292	0.00	29.739 
04:20	49.4	49.4	49.4	95	48.0	1	5	292	0.00	29.743 
04:25	49.2	49.2	49.2	95	47.8	1	6	22	0.00	29.746 
04:30	49.2	49.2	49.2	94	47.5	1	6	338	0.01	29.746 
04:35	49.1	49.1	49.1	94	47.4	1	5	338	0.00	29.743 
04:40	48.9	48.9	48.9	94	47.2	1	10	292	0.00	29.746 
04:45	48.9	48.9	48.9	94	47.2	1	4	292	0.00	29.746 
04:50	48.9	48.9	48.9	94	47.2	1	5	315	0.00	29.746 
04:55	48.8	48.8	48.8	94	47.1	1	6	292	0.00	29.749 
05:00	48.8	48.8	48.8	94	47.1	1	6	315	0.00	29.759 
05:05	48.8	48.8	48.8	94	47.1	1	5	292	0.00	29.764 
05:10	48.6	48.6	48.6	94	47.0	1	4	315	0.00	29.765 
05:15	48.6	48.6	48.6	94	47.0	1	3	315	0.00	29.766 
05:20	48.5	48.5	48.5	94	46.9	0	2	315	0.00	29.766 
05:25	48.2	48.2	48.2	94	46.6	1	7	315	0.01	29.769 
05:30	48.0	48.0	48.0	94	46.4	1	7	0	0.00	29.781 
05:35	48.0	48.0	48.0	93	46.1	1	5	292	0.00	29.783 
05:40	47.9	47.9	47.9	93	46.0	1	6	270	0.00	29.789 
05:45	47.9	47.9	47.9	94	46.3	1	3	292	0.00	29.798 
05:50	47.7	47.7	47.7	94	46.1	1	4	270	0.00	29.807 
05:55	47.6	47.6	47.6	94	46.0	1	5	270	0.01	29.811 
06:00	47.4	47.4	47.4	94	45.8	1	4	338	0.00	29.810 
06:05	47.4	47.4	47.4	94	45.8	1	2	292	0.00	29.811 
06:10	47.3	47.3	47.3	94	45.7	1	4	338	0.00	29.815 
06:15	47.3	47.3	47.3	94	45.7	0	1	315	0.01	29.816 
06:20	46.8	46.8	46.8	94	45.2	2	6	292	0.00	29.817 
06:25	46.5	46.5	46.5	93	44.6	1	3	22	0.01	29.816 
06:30	46.2	46.2	46.2	93	44.3	1	5	315	0.00	29.816 
06:35	46.1	46.1	46.1	93	44.2	2	6	292	0.00	29.817 
06:40	46.0	46.0	46.0	93	44.1	1	3	90	0.00	29.816 
06:45	46.0	46.0	46.0	93	44.1	1	6	158	0.01	29.811 
06:50	46.0	46.0	46.0	94	44.4	0	3	22	0.00	29.818 
06:55	46.0	46.0	46.0	94	44.4	1	4	315	0.00	29.818 
07:00	46.0	46.0	46.0	94	44.4	0	2	292	0.01	29.817 
07:05	46.0	46.0	46.0	94	44.4	0	3	45	0.00	29.820 
07:10	46.0	46.0	46.0	94	44.4	0	3	315	0.00	29.823 
07:15	46.0	46.0	46.0	94	44.4	0	2	22	0.00	29.832 
07:20	46.0	46.0	46.0	95	44.6	0	2	315	0.00	29.833 
07:25	46.1	46.1	46.1	95	44.7	0	3	270	0.00	29.834 
07:30	46.1	46.1	46.1	95	44.7	0	3	0	0.00	29.832 
07:35	46.1	46.1	46.1	95	44.7	0	1	0	0.00	29.827 
07:40	46.1	46.1	46.1	95	44.7	0	2	0	0.00	29.822 
07:45	46.0	46.0	46.0	95	44.6	0	4	338	0.00	29.819 
07:50	46.0	46.0	46.0	95	44.6	0	2	338	0.00	29.819 
07:55	46.0	46.0	46.0	95	44.6	0	2	338	0.00	29.817 
08:00	46.1	46.1	46.1	95	44.7	1	3	68	0.00	29.808 
08:05	46.1	46.1	46.1	95	44.7	1	10	158	0.00	29.813 
08:10	46.1	46.1	46.1	95	44.7	0	3	270	0.00	29.820 
08:15	46.1	46.1	46.1	95	44.7	0	2	270	0.00	29.834 
08:20	46.1	46.1	46.1	95	44.7	0	4	315	0.01	29.838 
08:25	46.1	46.1	46.1	95	44.7	0	4	315	0.00	29.847 
08:30	46.1	46.1	46.1	95	44.7	1	6	292	0.00	29.844 
08:35	46.2	46.2	46.2	95	44.8	0	1	292	0.00	29.846 
08:40	46.2	46.2	46.2	95	44.8	0	3	135	0.00	29.835 
08:45	46.2	46.2	46.2	95	44.8	0	2	90	0.00	29.834 
08:50	46.2	46.2	46.2	95	44.8	1	6	292	0.00	29.827 
08:55	46.4	46.4	46.4	95	45.0	0	2	270	0.00	29.835 
09:00	46.4	46.4	46.4	94	44.8	0	3	315	0.00	29.834 
09:05	46.5	46.5	46.5	94	44.9	0	2	315	0.00	29.835 
09:10	46.7	46.7	46.7	94	45.1	1	4	90	0.00	29.836 
09:15	46.8	46.8	46.8	94	45.2	0	2	90	0.00	29.838 
09:20	46.7	46.7	46.7	93	44.8	0	1	90	0.00	29.826 
09:25	46.7	46.7	46.7	93	44.8	0	1	22	0.00	29.817 
09:30	46.5	46.5	46.5	93	44.6	0	2	338	0.00	29.820 
09:35	46.5	46.5	46.5	93	44.6	1	4	292	0.00	29.844 
09:40	46.5	46.5	46.5	93	44.6	0	1	315	0.00	29.848 
09:45	46.5	46.5	46.5	93	44.6	0	4	0	0.01	29.862 
09:50	46.5	46.5	46.5	93	44.6	1	5	270	0.00	29.833 
09:55	46.4	46.4	46.4	93	44.5	1	3	22	0.00	29.835 
10:00	46.5	46.5	46.5	93	44.6	0	3	315	0.00	29.835 
10:05	46.4	46.4	46.4	93	44.5	1	4	292	0.00	29.834 
10:10	46.5	46.5	46.5	92	44.3	0	3	0	0.00	29.840 
10:15	46.5	46.5	46.5	92	44.3	0	1	0	0.00	29.846 
10:20	46.5	46.5	46.5	92	44.3	0	4	315	0.00	29.848 
10:25	46.7	46.7	46.7	92	44.5	0	3	315	0.00	29.855 
10:30	46.8	46.8	46.8	92	44.6	0	1	292	0.00	29.843 
10:35	47.0	47.0	47.0	92	44.8	0	1	292	0.00	29.849 
10:40	47.1	47.1	47.1	92	44.9	0	1	292	0.00	29.854 
10:45	47.0	47.0	47.0	91	44.5	0	2	315	0.00	29.863 
10:50	47.1	47.1	47.1	91	44.6	0	1	315	0.00	29.848 
10:55	47.1	47.1	47.1	91	44.6	0	2	315	0.00	29.852 
11:00	47.3	47.3	47.3	91	44.8	0	1	315	0.00	29.857 
11:05	47.4	47.4	47.4	90	44.6	0	3	292	0.00	29.855 
11:10	47.6	47.6	47.6	89	44.5	0	4	45	0.00	29.850 
11:15	47.7	47.7	47.7	89	44.6	0	1	292	0.00	29.852 
11:20	48.0	48.0	48.0	89	44.9	0	1	292	0.00	29.853 
11:25	48.2	48.2	48.2	88	44.8	0	1	292	0.00	29.857 
11:30	48.2	48.2	48.2	87	44.5	0	1	292	0.00	29.855 
11:35	48.5	48.5	48.5	87	44.8	0	3	112	0.00	29.850 
11:40	48.6	48.6	48.6	84	44.0	0	2	112	0.00	29.854 
11:45	48.9	48.9	48.9	85	44.6	0	2	45	0.00	29.859 
11:50	49.2	49.2	49.2	84	44.6	0	2	45	0.00	29.851 
11:55	49.1	49.1	49.1	82	43.8	0	2	22	0.00	29.857 
12:00	49.1	49.1	49.1	82	43.8	0	2	22	0.00	29.860 
12:05	49.1	49.1	49.1	83	44.2	0	1	22	0.00	29.861 
12:10	49.1	49.1	49.1	81	43.5	0	1	22	0.00	29.869 
12:15	49.4	49.4	49.4	82	44.1	0	1	22	0.00	29.864 
12:20	49.6	49.6	49.6	81	44.0	0	3	0	0.00	29.863 
12:25	49.8	49.8	49.8	80	43.9	1	3	315	0.00	29.867 
12:30	50.1	50.1	50.1	79	43.8	1	3	270	0.00	29.871 
12:35	50.7	50.7	50.7	77	43.8	1	4	292	0.00	29.863 
12:40	51.3	51.3	51.3	79	45.0	0	4	22	0.00	29.858 
12:45	51.6	51.6	51.6	77	44.6	0	1	22	0.00	29.853 
12:50	51.6	51.6	51.6	74	43.6	0	3	22	0.00	29.859 
12:55	51.7	51.7	51.7	75	44.0	1	3	90	0.00	29.847 
13:00	51.9	51.9	51.9	75	44.2	0	3	90	0.00	29.844 
13:05	52.2	52.2	52.2	72	43.4	1	5	292	0.00	29.843 
13:10	52.2	52.2	52.2	71	43.1	1	4	0	0.00	29.848 
13:15	52.0	52.0	52.0	73	43.6	0	3	112	0.00	29.850 
13:20	51.9	51.9	51.9	71	42.8	1	4	292	0.00	29.855 
13:25	51.7	51.7	51.7	70	42.2	1	2	0	0.00	29.863 
13:30	51.9	51.9	51.9	73	43.5	0	1	0	0.00	29.868 
13:35	52.0	52.0	52.0	71	42.9	0	2	0	0.00	29.875 
13:40	52.2	52.2	52.2	69	42.3	0	3	0	0.00	29.878 
13:45	52.2	52.2	52.2	68	42.0	0	3	315	0.00	29.879 
13:50	52.3	52.3	52.3	71	43.2	0	1	315	0.00	29.879 
13:55	52.3	52.3	52.3	70	42.8	0	1	315	0.00	29.870 
14:00	52.3	52.3	52.3	70	42.8	0	2	315	0.00	29.863 
14:05	52.3	52.3	52.3	68	42.1	0	2	315	0.00	29.864 
14:10	52.3	52.3	52.3	70	42.8	0	2	45	0.00	29.856 
14:15	52.2	52.2	52.2	69	42.3	0	1	45	0.00	29.849 
14:20	52.3	52.3	52.3	71	43.2	0	2	45	0.00	29.851 
14:25	52.2	52.2	52.2	71	43.1	0	2	45	0.00	29.850 
14:30	52.2	52.2	52.2	71	43.1	0	2	45	0.00	29.849 
14:35	52.2	52.2	52.2	69	42.3	0	1	45	0.00	29.850 
14:40	52.2	52.2	52.2	70	42.7	0	2	0	0.00	29.841 
14:45	52.2	52.2	52.2	70	42.7	0	2	0	0.00	29.850 
14:50	52.2	52.2	52.2	72	43.4	0	2	0	0.00	29.853 
14:55	52.2	52.2	52.2	71	43.1	0	2	0	0.00	29.857 
15:00	52.2	52.2	52.2	71	43.1	0	2	0	0.00	29.849 
15:05	52.2	52.2	52.2	72	43.4	1	3	0	0.00	29.837 
15:10	52.2	52.2	52.2	71	43.1	0	1	22	0.00	29.846 
15:15	52.0	52.0	52.0	72	43.3	0	1	22	0.00	29.848 
15:20	52.0	52.0	52.0	72	43.3	0	2	22	0.00	29.841 
15:25	51.9	51.9	51.9	71	42.8	0	2	22	0.00	29.836 
15:30	51.7	51.7	51.7	74	43.7	0	1	22	0.00	29.821 
15:35	51.7	51.7	51.7	73	43.3	0	0	---	0.00	29.837 
15:40	51.6	51.6	51.6	72	42.9	0	1	22	0.00	29.842 
15:45	51.6	51.6	51.6	73	43.2	0	0	---	0.00	29.854 
15:50	51.6	51.6	51.6	73	43.2	0	1	22	0.00	29.858 
15:55	51.6	51.6	51.6	73	43.2	0	1	22	0.00	29.886 
16:00	51.6	51.6	51.6	74	43.6	0	1	22	0.00	29.871 
16:05	51.6	51.6	51.6	75	43.9	0	0	---	0.00	29.871 
16:10	51.6	51.6	51.6	74	43.6	0	0	---	0.00	29.864 
16:15	51.6	51.6	51.6	75	43.9	0	1	22	0.00	29.847 
16:20	51.6	51.6	51.6	74	43.6	0	1	22	0.00	29.838 
16:25	51.6	51.6	51.6	76	44.3	0	0	---	0.00	29.839 
16:30	51.4	51.4	51.4	75	43.7	0	1	22	0.00	29.844 
16:35	51.3	51.3	51.3	75	43.6	0	1	22	0.00	29.834 
16:40	51.1	51.1	51.1	76	43.8	0	0	---	0.00	29.837 
16:45	51.1	51.1	51.1	76	43.8	0	0	---	0.00	29.850 
16:50	51.0	51.0	51.0	78	44.4	0	0	---	0.00	29.846 
16:55	50.8	50.8	50.8	78	44.2	0	0	---	0.00	29.839 
17:00	50.5	50.5	50.5	78	43.9	0	0	---	0.00	29.837 
17:05	50.5	50.5	50.5	79	44.2	0	0	---	0.00	29.830 
17:10	50.4	50.4	50.4	79	44.1	0	0	---	0.00	29.827 
17:15	50.2	50.2	50.2	79	43.9	0	0	---	0.00	29.831 
17:20	50.1	50.1	50.1	80	44.2	0	0	---	0.00	29.826 
17:25	49.9	49.9	49.9	81	44.3	0	0	---	0.00	29.825 
17:30	49.8	49.8	49.8	81	44.2	0	0	---	0.00	29.811 
17:35	49.6	49.6	49.6	81	44.0	0	1	22	0.00	29.811 
17:40	49.6	49.6	49.6	81	44.0	0	1	22	0.00	29.806 
17:45	49.5	49.5	49.5	82	44.2	0	1	22	0.00	29.796 
17:50	49.5	49.5	49.5	82	44.2	0	1	22	0.00	29.817 
17:55	49.5	49.5	49.5	82	44.2	0	0	---	0.00	29.826 
18:00	49.4	49.4	49.4	82	44.1	0	0	---	0.00	29.826 
18:05	49.4	49.4	49.4	82	44.1	0	0	---	0.00	29.843 
18:10	49.2	49.2	49.2	83	44.3	0	0	---	0.00	29.852 
18:15	49.2	49.2	49.2	84	44.6	0	0	---	0.00	29.859 
18:20	49.1	49.1	49.1	84	44.5	0	0	---	0.00	29.859 
18:25	48.9	48.9	48.9	84	44.3	0	0	---	0.00	29.855 
18:30	48.8	48.8	48.8	85	44.5	0	0	---	0.00	29.847 
18:35	48.6	48.6	48.6	86	44.6	0	0	---	0.00	29.860 
18:40	48.6	48.6	48.6	86	44.6	0	1	22	0.00	29.860 
18:45	48.5	48.5	48.5	87	44.8	0	0	---	0.00	29.857 
18:50	48.5	48.5	48.5	87	44.8	0	0	---	0.00	29.858 
18:55	48.3	48.3	48.3	87	44.6	0	0	---	0.00	29.850 
19:00	48.2	48.2	48.2	88	44.8	0	0	---	0.00	29.857 
19:05	48.2	48.2	48.2	88	44.8	0	0	---	0.00	29.862 
19:10	48.2	48.2	48.2	88	44.8	0	0	---	0.00	29.853 
19:15	48.2	48.2	48.2	88	44.8	0	0	---	0.00	29.858 
19:20	48.2	48.2	48.2	88	44.8	0	0	---	0.00	29.859 
19:25	48.2	48.2	48.2	88	44.8	0	1	22	0.00	29.860 
19:30	48.2	48.2	48.2	88	44.8	0	0	---	0.00	29.855 
19:35	48.2	48.2	48.2	88	44.8	0	0	---	0.00	29.846 
19:40	48.2	48.2	48.2	88	44.8	0	1	22	0.00	29.834 
19:45	48.0	48.0	48.0	88	44.6	0	1	22	0.00	29.841 
19:50	48.0	48.0	48.0	88	44.6	0	0	---	0.00	29.843 
19:55	47.9	47.9	47.9	87	44.2	0	0	---	0.00	29.861 
20:00	47.9	47.9	47.9	88	44.5	0	0	---	0.00	29.858 
20:05	47.9	47.9	47.9	88	44.5	0	0	---	0.00	29.867 
20:10	47.7	47.7	47.7	88	44.3	0	1	22	0.00	29.875 
20:15	47.7	47.7	47.7	89	44.6	0	0	---	0.00	29.875 
20:20	47.6	47.6	47.6	89	44.5	0	0	---	0.00	29.874 
20:25	47.6	47.6	47.6	89	44.5	0	0	---	0.00	29.863 
20:30	47.6	47.6	47.6	89	44.5	0	1	22	0.00	29.873 
20:35	47.6	47.6	47.6	90	44.8	0	1	22	0.00	29.860 
20:40	47.6	47.6	47.6	90	44.8	0	1	22	0.00	29.865 
20:45	47.6	47.6	47.6	90	44.8	0	0	---	0.00	29.873 
20:50	47.4	47.4	47.4	90	44.6	0	1	22	0.00	29.868 
20:55	47.4	47.4	47.4	91	44.9	0	0	---	0.00	29.867 
21:00	47.4	47.4	47.4	91	44.9	0	1	22	0.00	29.875 
21:05	47.3	47.3	47.3	91	44.8	0	0	---	0.00	29.871 
21:10	47.4	47.4	47.4	91	44.9	0	1	22	0.00	29.891 
21:15	47.4	47.4	47.4	91	44.9	0	1	22	0.00	29.888 
21:20	47.3	47.3	47.3	91	44.8	0	0	---	0.00	29.891 
21:25	47.3	47.3	47.3	92	45.1	0	1	22	0.00	29.881 
21:30	47.3	47.3	47.3	92	45.1	0	0	---	0.00	29.886 
21:35	47.3	47.3	47.3	92	45.1	0	0	---	0.00	29.890 
21:40	47.1	47.1	47.1	92	44.9	0	0	---	0.00	29.890 
21:45	47.1	47.1	47.1	92	44.9	0	0	---	0.00	29.890 
21:50	47.1	47.1	47.1	92	44.9	0	1	22	0.00	29.882 
21:55	47.3	47.3	47.3	92	45.1	0	1	22	0.00	29.883 
22:00	47.3	47.3	47.3	92	45.1	0	1	22	0.00	29.875 
22:05	47.3	47.3	47.3	92	45.1	0	0	---	0.00	29.875 
22:10	47.3	47.3	47.3	92	45.1	0	1	22	0.00	29.866 
22:15	47.3	47.3	47.3	92	45.1	0	0	---	0.00	29.868 
22:20	47.3	47.3	47.3	92	45.1	0	1	22	0.00	29.864 
22:25	47.4	47.4	47.4	92	45.2	0	0	---	0.00	29.855 
22:30	47.4	47.4	47.4	92	45.2	0	0	---	0.00	29.853 
22:35	47.3	47.3	47.3	92	45.1	0	1	22	0.00	29.842 
22:40	47.3	47.3	47.3	92	45.1	0	0	---	0.00	29.843 
22:45	47.3	47.3	47.3	92	45.1	0	0	---	0.00	29.840 
22:50	47.3	47.3	47.3	92	45.1	0	0	---	0.00	29.822 
22:55	47.3	47.3	47.3	92	45.1	0	0	---	0.00	29.831 
23:00	47.3	47.3	47.3	92	45.1	0	0	---	0.00	29.835 
23:05	47.3	47.3	47.3	92	45.1	0	0	---	0.00	29.840 
23:10	47.3	47.3	47.3	92	45.1	0	0	---	0.00	29.844 
23:15	47.3	47.3	47.3	92	45.1	0	0	---	0.00	29.839 
23:20	47.3	47.3	47.3	92	45.1	0	1	22	0.00	29.847 
23:25	47.3	47.3	47.3	92	45.1	0	0	---	0.00	29.846 
23:30	47.3	47.3	47.3	92	45.1	0	0	---	0.00	29.843 
23:35	47.1	47.1	47.1	92	44.9	0	1	22	0.00	29.840 
23:40	47.1	47.1	47.1	92	44.9	0	0	---	0.00	29.835 
23:45	47.0	47.0	47.0	92	44.8	0	0	---	0.00	29.827 
23:50	47.0	47.0	47.0	92	44.8	0	0	---	0.00	29.827 
23:55	46.8	46.8	46.8	92	44.6	0	0	---	0.00	29.840 

CoCoRaHS
IN-AL-39
A2 Web Hosting
Creative Commons License
GoDaddy
Look for:

loaded 2017-10-20 20:02:04 • last modified 2010-11-18 10:43:29
Privacy PolicyDisclaimer
• wx.awcolley.com is powered by PmWiki v.2002016 •
• all content (unless otherwise noted) © 2017 A W Colley